Time;durP1;ratioP1;P1;durP2;ratioP2;P2;SDS_P1;SDS_P2;PMS_P1;PMS_P2;Temp;Humidity;BMP_temperature;BMP_pressure;BME280_temperature;BME280_humidity;BME280_pressure;Samples;Min_cycle;Max_cycle;Signal;HPM_P1;HPM_P2
2023/02/24 00:02:13;;;;;;;60.75;30.25;;;;;;;9.57;77.51;100906.66;4958386;29;20058;-73
2023/02/24 00:04:42;;;;;;;59.67;30.77;;;;;;;9.69;77.42;100906.19;4960142;29;20051;-74
2023/02/24 00:07:11;;;;;;;58.80;30.50;;;;;;;9.69;77.32;100911.69;4958817;29;20051;-74
2023/02/24 00:09:39;;;;;;;55.65;29.98;;;;;;;9.66;77.39;100909.56;4958049;29;20054;-75
2023/02/24 00:12:10;;;;;;;55.83;30.63;;;;;;;9.76;77.08;100904.66;4957457;29;20150;-75
2023/02/24 00:14:39;;;;;;;59.53;30.42;;;;;;;9.90;76.50;100901.94;4958943;29;20051;-73
2023/02/24 00:17:07;;;;;;;63.65;32.00;;;;;;;9.89;76.39;100892.03;4972346;28;20179;-74
2023/02/24 00:19:35;;;;;;;57.78;31.42;;;;;;;9.92;76.49;100892.25;4957786;28;20066;-75
2023/02/24 00:22:04;;;;;;;59.70;31.45;;;;;;;9.61;77.36;100888.44;4957953;29;20051;-73
2023/02/24 00:24:32;;;;;;;68.68;31.77;;;;;;;9.55;77.82;100894.34;4958090;29;20517;-75
2023/02/24 00:27:06;;;;;;;58.00;30.50;;;;;;;9.50;77.93;100897.97;4957731;29;20039;-74
2023/02/24 00:29:38;;;;;;;60.13;33.10;;;;;;;9.54;78.36;100899.03;4959324;29;20054;-74
2023/02/24 00:32:11;;;;;;;59.08;30.40;;;;;;;9.64;77.83;100895.28;4957089;28;20039;-73
2023/02/24 00:34:40;;;;;;;62.35;33.95;;;;;;;9.67;77.61;100894.66;4958439;29;20066;-73
2023/02/24 00:37:07;;;;;;;62.65;32.45;;;;;;;9.60;77.82;100886.00;4974361;28;20505;-74
2023/02/24 00:39:39;;;;;;;63.05;34.67;;;;;;;9.52;78.47;100890.25;4977501;28;20070;-73
2023/02/24 00:42:10;;;;;;;60.28;33.38;;;;;;;9.64;78.56;100887.03;4943434;29;20200;-73
2023/02/24 00:44:40;;;;;;;64.70;33.53;;;;;;;9.67;77.72;100892.75;4977034;28;20058;-73
2023/02/24 00:47:09;;;;;;;67.70;35.42;;;;;;;9.59;78.16;100881.63;4966761;28;20058;-73
2023/02/24 00:49:41;;;;;;;71.68;35.10;;;;;;;9.47;79.09;100875.78;4960948;29;20066;-74
2023/02/24 00:52:19;;;;;;;66.75;34.25;;;;;;;9.41;78.89;100877.81;4959651;29;20047;-75
2023/02/24 00:54:48;;;;;;;69.30;36.58;;;;;;;9.58;78.90;100877.22;4962425;29;20068;-73
2023/02/24 00:57:17;;;;;;;65.35;34.78;;;;;;;9.62;78.35;100881.00;4975561;28;20043;-74
2023/02/24 00:59:46;;;;;;;71.78;35.20;;;;;;;9.60;78.65;100875.00;4945366;29;20051;-73
2023/02/24 01:02:14;;;;;;;67.65;35.50;;;;;;;9.54;78.56;100876.19;4943483;29;20078;-73
2023/02/24 01:04:43;;;;;;;67.87;35.20;;;;;;;9.68;78.33;100883.38;4961671;29;20055;-75
2023/02/24 01:07:13;;;;;;;67.47;35.97;;;;;;;9.77;77.48;100877.97;4959046;28;20307;-73
2023/02/24 01:09:42;;;;;;;71.43;36.65;;;;;;;9.58;78.77;100874.47;4962065;29;20490;-73
2023/02/24 01:12:37;;;;;;;68.22;36.45;;;;;;;9.75;77.90;100867.28;4975569;28;20058;-74
2023/02/24 01:15:07;;;;;;;68.40;34.28;;;;;;;9.68;78.14;100866.84;4961871;29;20051;-73
2023/02/24 01:17:36;;;;;;;67.47;35.45;;;;;;;9.67;78.00;100870.75;4960229;29;20513;-73
2023/02/24 01:20:18;;;;;;;64.38;33.92;;;;;;;9.56;78.52;100865.72;4976826;28;20119;-74
2023/02/24 01:22:48;;;;;;;73.80;36.65;;;;;;;9.39;79.18;100857.22;4960764;28;20047;-73
2023/02/24 01:25:18;;;;;;;72.68;37.47;;;;;;;9.45;79.09;100856.03;4961211;29;20400;-74
2023/02/24 01:27:46;;;;;;;73.28;37.97;;;;;;;9.35;79.73;100857.03;4943894;29;20055;-73
2023/02/24 01:30:17;;;;;;;73.50;39.10;;;;;;;9.43;79.45;100852.78;4976286;28;20055;-74
2023/02/24 01:32:45;;;;;;;74.50;37.30;;;;;;;9.38;79.78;100852.88;4960203;29;20054;-73
2023/02/24 01:35:14;;;;;;;73.67;37.87;;;;;;;9.41;79.57;100844.00;4961124;29;20051;-74
2023/02/24 01:37:41;;;;;;;74.88;36.72;;;;;;;9.29;79.54;100849.19;4943176;29;20051;-73
2023/02/24 01:40:16;;;;;;;72.57;37.03;;;;;;;9.41;79.32;100855.00;4961696;28;20055;-74
2023/02/24 01:42:46;;;;;;;83.15;40.17;;;;;;;9.13;80.60;100858.78;4960253;29;20467;-73
2023/02/24 01:45:17;;;;;;;77.75;39.05;;;;;;;9.27;80.33;100854.97;4959764;28;20054;-73
2023/02/24 01:47:46;;;;;;;75.18;37.78;;;;;;;9.18;80.62;100842.22;4958198;28;20048;-73
2023/02/24 01:50:15;;;;;;;77.78;39.65;;;;;;;9.09;81.00;100842.91;4960889;29;20051;-73
2023/02/24 01:52:46;;;;;;;80.85;38.80;;;;;;;9.08;80.82;100837.72;4961150;28;20047;-73
2023/02/24 01:55:15;;;;;;;79.07;38.35;;;;;;;9.03;81.03;100855.09;4962019;29;20062;-73
2023/02/24 01:57:44;;;;;;;77.97;38.03;;;;;;;8.98;81.66;100824.94;4959504;29;20047;-73
2023/02/24 02:00:36;;;;;;;77.03;38.70;;;;;;;9.06;81.19;100835.28;4977097;28;20055;-74
2023/02/24 02:03:11;;;;;;;74.28;38.03;;;;;;;9.14;80.34;100825.50;4960146;29;20146;-73
2023/02/24 02:05:40;;;;;;;77.90;37.63;;;;;;;9.23;80.09;100831.94;4975055;28;20055;-75
2023/02/24 02:08:08;;;;;;;76.63;39.65;;;;;;;9.23;80.03;100831.13;4976207;28;20058;-64
2023/02/24 02:10:39;;;;;;;69.68;37.50;;;;;;;9.22;80.13;100824.00;4974342;28;20575;-65
2023/02/24 02:13:07;;;;;;;75.50;38.38;;;;;;;9.28;79.73;100817.28;4959689;29;20519;-65
2023/02/24 02:15:39;;;;;;;71.82;37.05;;;;;;;9.39;79.64;100808.56;4974121;28;20059;-65
2023/02/24 02:18:19;;;;;;;73.75;38.30;;;;;;;9.18;80.33;100810.06;4943189;29;20055;-65
2023/02/24 02:20:52;;;;;;;77.28;38.22;;;;;;;9.27;80.22;100816.50;4956979;29;20062;-65
2023/02/24 02:23:57;;;;;;;76.35;38.05;;;;;;;9.02;81.31;100805.94;4960588;28;20050;-66
2023/02/24 02:26:42;;;;;;;72.68;38.13;;;;;;;9.20;81.24;100807.00;4958718;29;20055;-65
2023/02/24 02:29:35;;;;;;;75.53;38.53;;;;;;;9.27;80.49;100808.25;4961062;28;20090;-65
2023/02/24 02:32:33;;;;;;;77.30;39.25;;;;;;;9.09;81.48;100801.69;4958942;28;20189;-65
2023/02/24 02:35:08;;;;;;;77.75;40.00;;;;;;;9.04;82.67;100789.97;4975090;28;20062;-66
2023/02/24 02:37:41;;;;;;;77.05;38.95;;;;;;;8.88;84.22;100783.94;4957843;28;20070;-66
2023/02/24 02:40:18;;;;;;;80.45;41.60;;;;;;;8.99;84.28;100784.56;4960092;29;20055;-65
2023/02/24 02:43:01;;;;;;;81.50;41.72;;;;;;;8.87;84.71;100773.25;4955479;28;20495;-67
2023/02/24 02:45:39;;;;;;;80.18;40.53;;;;;;;8.84;85.58;100780.16;4957135;29;20071;-66
2023/02/24 02:48:19;;;;;;;79.43;42.10;;;;;;;8.83;85.43;100784.00;4958699;29;20062;-66
2023/02/24 02:51:02;;;;;;;79.97;41.60;;;;;;;8.95;85.69;100776.13;4926967;29;20043;-65
2023/02/24 02:53:41;;;;;;;76.80;40.75;;;;;;;8.84;85.87;100777.41;4959139;28;20054;-66
2023/02/24 02:56:16;;;;;;;79.85;41.17;;;;;;;8.92;85.64;100773.16;4973161;28;20062;-64
2023/02/24 02:58:48;;;;;;;82.03;40.97;;;;;;;9.00;85.28;100778.78;4958975;28;20426;-67
2023/02/24 03:01:19;;;;;;;84.82;42.92;;;;;;;8.88;86.53;100775.69;4956238;29;20051;-66
2023/02/24 03:03:52;;;;;;;79.47;42.63;;;;;;;8.78;87.36;100775.03;4974545;28;20047;-66
2023/02/24 03:06:31;;;;;;;82.00;42.47;;;;;;;8.72;87.25;100777.06;4956942;28;20055;-66
2023/02/24 03:09:14;;;;;;;81.10;41.45;;;;;;;8.71;87.60;100775.44;4942828;29;20062;-66
2023/02/24 03:11:52;;;;;;;76.63;39.10;;;;;;;8.80;87.49;100768.13;4958101;29;20055;-66
2023/02/24 03:14:23;;;;;;;78.60;41.10;;;;;;;8.78;87.23;100762.13;4959525;28;20066;-65
2023/02/24 03:16:51;;;;;;;84.60;41.05;;;;;;;8.74;87.13;100772.06;4956701;28;20074;-66
2023/02/24 03:19:25;;;;;;;78.50;41.13;;;;;;;8.72;88.32;100773.47;4959322;29;20066;-65
2023/02/24 03:22:23;;;;;;;80.50;40.58;;;;;;;8.90;87.01;100772.63;4963259;28;20047;-66
2023/02/24 03:24:51;;;;;;;73.47;37.80;;;;;;;8.99;86.81;100768.91;4973823;28;20066;-66
2023/02/24 03:27:38;;;;;;;77.15;39.72;;;;;;;9.23;85.30;100773.41;4972109;28;20062;-66
2023/02/24 03:30:15;;;;;;;75.03;40.00;;;;;;;8.92;85.76;100775.91;4942506;29;20066;-66
2023/02/24 03:33:18;;;;;;;74.20;38.53;;;;;;;8.90;86.64;100773.47;4957114;28;20499;-66
2023/02/24 03:35:50;;;;;;;77.63;39.55;;;;;;;8.71;87.32;100778.19;4956272;29;20051;-66
2023/02/24 03:38:18;;;;;;;77.35;40.45;;;;;;;8.90;87.29;100780.88;4958696;28;20043;-66
2023/02/24 03:40:46;;;;;;;76.53;39.00;;;;;;;8.86;86.75;100775.16;4972278;28;20062;-66
2023/02/24 03:43:29;;;;;;;74.13;39.33;;;;;;;8.75;87.69;100765.47;4974091;28;20047;-66
2023/02/24 03:45:59;;;;;;;72.30;38.60;;;;;;;8.66;87.57;100771.94;4972315;28;20051;-66
2023/02/24 03:48:27;;;;;;;71.15;38.30;;;;;;;8.66;87.31;100770.03;4958665;29;20074;-66
2023/02/24 03:50:58;;;;;;;71.60;37.35;;;;;;;8.54;88.21;100761.41;4939531;29;20055;-67
2023/02/24 03:53:55;;;;;;;;;;;;;;;8.56;88.23;100761.13;4958170;29;20062;-66
2023/02/24 03:56:32;;;;;;;73.28;39.20;;;;;;;8.58;88.58;100751.47;4953327;28;19930;-66
2023/02/24 03:59:24;;;;;;;74.47;38.42;;;;;;;8.83;87.05;100745.56;4954665;29;20062;-65
2023/02/24 04:01:59;;;;;;;73.43;37.28;;;;;;;8.90;86.70;100740.50;4964360;28;20417;-65
2023/02/24 04:05:02;;;;;;;70.28;37.75;;;;;;;8.93;86.08;100737.13;4942856;29;20051;-67
2023/02/24 04:07:50;;;;;;;69.35;38.25;;;;;;;8.94;85.91;100729.72;4953198;29;20467;-65
2023/02/24 04:10:33;;;;;;;67.93;38.40;;;;;;;8.94;85.47;100732.47;4954543;29;20062;-65
2023/02/24 04:13:36;;;;;;;63.83;35.63;;;;;;;8.89;84.76;100727.06;4957648;28;20051;-66
2023/02/24 04:16:17;;;;;;;68.45;38.05;;;;;;;8.85;85.08;100732.34;4941727;29;20070;-65
2023/02/24 04:18:49;;;;;;;66.82;36.25;;;;;;;8.78;85.61;100720.13;4956956;29;20063;-65
2023/02/24 04:21:18;;;;;;;69.28;38.63;;;;;;;8.85;85.73;100718.63;4939178;29;20067;-66
2023/02/24 04:23:46;;;;;;;64.72;36.22;;;;;;;8.85;84.71;100717.78;4958606;29;20051;-67
2023/02/24 04:26:15;;;;;;;67.47;36.15;;;;;;;8.96;84.02;100716.50;4971434;28;20043;-64
2023/02/24 04:28:47;;;;;;;66.07;35.88;;;;;;;8.92;84.53;100712.72;4941573;29;20051;-65
2023/02/24 04:31:17;;;;;;;67.80;36.35;;;;;;;8.79;85.08;100708.81;4971789;28;20051;-66
2023/02/24 04:33:49;;;;;;;63.50;35.58;;;;;;;8.81;84.84;100695.63;4957116;29;20052;-66
2023/02/24 04:36:20;;;;;;;65.85;37.53;;;;;;;9.01;84.12;100688.94;4971489;28;20054;-64
2023/02/24 04:38:48;;;;;;;61.73;36.63;;;;;;;9.13;82.49;100695.53;4957227;29;20055;-64
2023/02/24 04:41:19;;;;;;;68.43;37.25;;;;;;;9.13;82.25;100689.25;4956107;28;20287;-64
2023/02/24 04:43:52;;;;;;;63.40;35.50;;;;;;;9.29;82.28;100696.09;4958482;29;20055;-65
2023/02/24 04:46:19;;;;;;;63.65;36.00;;;;;;;9.12;82.12;100700.53;4956618;29;20047;-64
2023/02/24 04:48:47;;;;;;;63.70;35.92;;;;;;;8.96;83.21;100691.78;4957936;29;20052;-64
2023/02/24 04:51:14;;;;;;;61.30;34.78;;;;;;;8.93;83.24;100695.94;4956775;29;20054;-64
2023/02/24 04:53:42;;;;;;;63.97;36.60;;;;;;;8.80;83.25;100690.44;4958377;29;20399;-66
2023/02/24 04:56:09;;;;;;;67.53;37.15;;;;;;;9.24;82.90;100689.88;4955579;29;20051;-65
2023/02/24 04:58:38;;;;;;;63.10;36.33;;;;;;;9.07;82.23;100687.69;4941209;29;20055;-66
2023/02/24 05:01:09;;;;;;;63.55;36.38;;;;;;;9.10;82.60;100689.84;4956699;29;20047;-65
2023/02/24 05:03:40;;;;;;;60.72;36.05;;;;;;;8.96;83.28;100683.53;4956758;29;20070;-65
2023/02/24 05:06:16;;;;;;;62.15;35.65;;;;;;;9.08;82.57;100684.66;4956621;29;20407;-65
2023/02/24 05:08:43;;;;;;;62.92;35.58;;;;;;;8.97;82.25;100691.47;4958092;29;20414;-65
2023/02/24 05:11:14;;;;;;;66.13;37.80;;;;;;;8.61;84.67;100690.47;4970866;28;20059;-65
2023/02/24 05:13:45;;;;;;;59.72;36.42;;;;;;;8.59;84.39;100692.72;4956724;29;20073;-65
2023/02/24 05:16:16;;;;;;;63.95;36.75;;;;;;;8.46;85.14;100687.16;4956650;29;20533;-64
2023/02/24 05:18:44;;;;;;;71.18;37.90;;;;;;;8.85;84.90;100687.59;4972059;28;20165;-66
2023/02/24 05:24:05;;;;;;;60.33;34.97;;;;;;;8.65;84.30;100677.78;4960125;28;20156;-65
2023/02/24 05:26:35;;;;;;;63.00;37.35;;;;;;;8.63;84.88;100676.47;4971508;28;20146;-65
2023/02/24 05:29:03;;;;;;;;;;;;;;;8.66;84.72;100679.41;4959898;29;20391;-65
2023/02/24 05:31:31;;;;;;;63.92;35.15;;;;;;;8.81;84.72;100675.56;4958236;29;19941;-65
2023/02/24 05:34:04;;;;;;;62.00;36.25;;;;;;;8.78;84.02;100671.50;4943713;29;20055;-66
2023/02/24 05:36:36;;;;;;;67.25;37.95;;;;;;;8.56;85.18;100674.09;4959845;28;20513;-64
2023/02/24 05:39:11;;;;;;;65.60;38.05;;;;;;;8.30;87.36;100675.63;4960130;29;20379;-65
2023/02/24 05:41:41;;;;;;;67.97;38.80;;;;;;;8.50;86.51;100683.53;4963630;28;20054;-66
2023/02/24 05:44:12;;;;;;;;;;;;;;;8.52;86.77;100666.75;4961922;28;20058;-65
2023/02/24 05:46:41;;;;;;;62.42;37.05;;;;;;;8.52;86.80;100672.25;4959624;29;19922;-65
2023/02/24 05:49:21;;;;;;;72.95;42.38;;;;;;;8.15;88.72;100681.34;4961065;28;20479;-67
2023/02/24 05:51:53;;;;;;;75.63;42.30;;;;;;;8.04;89.05;100670.81;4958417;29;20398;-66
2023/02/24 05:54:29;;;;;;;73.63;42.45;;;;;;;7.96;90.09;100670.38;4975684;28;20055;-66
2023/02/24 05:57:10;;;;;;;78.13;43.83;;;;;;;7.92;90.52;100663.84;4958272;28;20051;-66
2023/02/24 05:59:40;;;;;;;75.88;42.22;;;;;;;7.85;90.88;100657.94;4961086;29;20410;-66
2023/02/24 06:02:10;;;;;;;76.35;43.70;;;;;;;8.05;91.03;100653.25;4974154;28;20054;-65
2023/02/24 06:04:38;;;;;;;;;;;;;;;8.08;89.35;100653.47;4961480;29;20047;-65
2023/02/24 06:07:12;;;;;;;68.05;39.83;;;;;;;8.01;90.28;100664.00;4959662;29;20269;-65
2023/02/24 06:09:41;;;;;;;74.65;42.25;;;;;;;7.69;90.90;100664.72;4959614;29;20055;-65
2023/02/24 06:12:10;;;;;;;72.25;41.90;;;;;;;7.89;90.59;100649.91;4959249;29;20058;-65
2023/02/24 06:14:37;;;;;;;72.53;42.05;;;;;;;7.82;91.44;100652.22;4960944;28;20051;-66
2023/02/24 06:17:05;;;;;;;73.53;41.80;;;;;;;8.00;91.05;100651.41;4959294;29;20047;-66
2023/02/24 06:19:32;;;;;;;72.32;42.03;;;;;;;7.95;90.36;100651.47;4960652;29;20055;-66
2023/02/24 06:22:00;;;;;;;71.28;40.42;;;;;;;8.16;89.78;100652.78;4959340;29;20058;-65
2023/02/24 06:24:29;;;;;;;69.22;40.92;;;;;;;8.14;89.30;100641.31;4960951;29;20047;-66
2023/02/24 06:27:08;;;;;;;64.07;39.47;;;;;;;8.43;88.18;100644.69;4959085;28;20055;-67
2023/02/24 06:29:36;;;;;;;71.78;42.10;;;;;;;8.23;87.89;100642.22;4960509;29;20055;-66
2023/02/24 06:32:10;;;;;;;65.85;38.47;;;;;;;8.28;88.00;100641.38;4959693;28;20081;-75
2023/02/24 06:34:38;;;;;;;68.55;41.97;;;;;;;8.09;88.28;100635.09;4975978;28;20047;-75
2023/02/24 06:37:07;;;;;;;74.28;40.70;;;;;;;8.04;88.05;100646.16;4960434;28;20058;-74
2023/02/24 06:39:35;;;;;;;71.33;41.23;;;;;;;7.96;88.52;100639.41;4943855;29;20059;-74
2023/02/24 06:42:04;;;;;;;106.35;58.72;;;;;;;8.09;87.70;100657.03;4960264;29;20051;-75
2023/02/24 06:44:33;;;;;;;80.43;45.75;;;;;;;7.97;88.00;100649.25;4977267;28;20043;-76
2023/02/24 06:47:01;;;;;;;68.53;39.97;;;;;;;8.21;86.80;100651.91;4975466;28;20050;-76
2023/02/24 06:49:28;;;;;;;64.07;38.35;;;;;;;8.11;86.07;100652.06;4961357;29;20062;-76
2023/02/24 06:51:56;;;;;;;71.25;39.45;;;;;;;7.96;87.31;100653.94;4959130;29;20418;-76
2023/02/24 06:54:27;;;;;;;67.93;37.58;;;;;;;7.72;87.63;100653.16;4976007;28;20051;-75
2023/02/24 06:57:04;;;;;;;67.63;37.15;;;;;;;7.72;88.21;100660.59;4957886;28;20383;-75
2023/02/24 06:59:34;;;;;;;66.93;37.10;;;;;;;7.84;88.04;100659.06;4969058;28;20069;-77
2023/02/24 07:02:11;;;;;;;101.22;54.30;;;;;;;7.88;87.98;100665.56;4928989;28;20047;-75
2023/02/24 07:04:44;;;;;;;72.10;39.70;;;;;;;7.96;86.66;100669.56;4956678;28;20043;-75
2023/02/24 07:07:13;;;;;;;69.32;38.75;;;;;;;7.62;87.48;100672.50;4956836;28;20051;-75
2023/02/24 07:09:41;;;;;;;66.30;36.72;;;;;;;7.50;87.49;100676.78;4961990;28;20054;-75
2023/02/24 07:12:09;;;;;;;68.68;36.80;;;;;;;7.37;88.88;100677.50;4959040;28;20059;-74
2023/02/24 07:14:37;;;;;;;66.07;37.70;;;;;;;7.30;88.76;100677.06;4965958;28;20050;-74
2023/02/24 07:17:05;;;;;;;78.47;37.47;;;;;;;7.39;88.87;100684.31;4961542;28;20066;-73
2023/02/24 07:19:33;;;;;;;71.18;37.92;;;;;;;7.33;88.79;100688.25;4961499;29;20074;-73
2023/02/24 07:22:02;;;;;;;68.70;37.03;;;;;;;7.44;88.22;100675.22;4975471;28;20058;-74
2023/02/24 07:24:34;;;;;;;70.55;37.08;;;;;;;7.48;87.31;100673.53;4961710;28;20078;-73
2023/02/24 07:27:20;;;;;;;73.90;37.15;;;;;;;7.49;87.18;100672.41;4959865;29;20062;-76
2023/02/24 07:29:49;;;;;;;75.72;36.72;;;;;;;7.29;88.10;100675.41;4961119;28;20375;-75
2023/02/24 07:32:24;;;;;;;79.10;36.20;;;;;;;7.33;87.07;100669.06;4959644;29;20499;-74
2023/02/24 07:34:52;;;;;;;80.47;36.13;;;;;;;7.29;87.18;100669.91;4959219;29;20047;-73
2023/02/24 07:37:19;;;;;;;70.47;36.38;;;;;;;7.24;87.30;100673.56;4973835;28;20051;-74
2023/02/24 07:39:48;;;;;;;69.15;36.88;;;;;;;7.16;87.10;100681.59;4975742;28;20055;-74
2023/02/24 07:42:16;;;;;;;75.10;35.80;;;;;;;7.20;87.61;100679.91;4970408;28;20538;-75
2023/02/24 07:44:45;;;;;;;80.30;38.90;;;;;;;7.11;87.97;100671.53;4955821;29;20051;-74
2023/02/24 07:47:14;;;;;;;69.53;35.03;;;;;;;7.18;87.37;100680.22;4949743;28;20047;-73
2023/02/24 07:49:44;;;;;;;76.00;37.55;;;;;;;7.24;87.40;100670.81;4975307;28;20047;-74
2023/02/24 07:52:11;;;;;;;79.28;37.50;;;;;;;7.25;87.50;100669.72;4937998;28;20051;-75
2023/02/24 07:54:39;;;;;;;70.03;36.17;;;;;;;7.21;86.37;100668.66;4961211;28;20055;-77
2023/02/24 07:57:12;;;;;;;68.43;35.95;;;;;;;7.22;86.36;100675.75;4954178;28;20043;-74
2023/02/24 07:59:43;;;;;;;69.82;37.03;;;;;;;7.20;86.85;100674.44;4955823;29;20051;-73
2023/02/24 08:02:12;;;;;;;72.55;35.90;;;;;;;7.28;85.74;100676.53;4949754;28;20047;-71
2023/02/24 08:04:43;;;;;;;79.80;40.00;;;;;;;7.24;86.47;100680.94;4951691;28;20047;-71
2023/02/24 08:07:13;;;;;;;67.00;34.60;;;;;;;7.04;86.40;100672.97;4966228;28;20048;-70
2023/02/24 08:12:20;;;;;;;76.25;35.35;;;;;;;7.20;86.28;100668.97;4956406;28;20055;-73
2023/02/24 08:14:52;;;;;;;72.45;35.10;;;;;;;6.94;86.90;100665.69;4956675;29;20047;-72
2023/02/24 08:17:25;;;;;;;85.78;37.00;;;;;;;7.27;85.81;100675.69;4953974;28;20043;-72
2023/02/24 08:20:20;;;;;;;74.05;35.17;;;;;;;7.47;84.87;100677.38;4954042;28;20061;-74
2023/02/24 08:22:45;;;;;;;75.37;33.97;;;;;;;7.32;84.22;100667.41;4971536;28;20054;-75
2023/02/24 08:25:17;;;;;;;70.70;33.40;;;;;;;7.20;84.75;100667.03;4957182;28;20047;-73
2023/02/24 08:27:54;;;;;;;69.25;32.72;;;;;;;7.24;84.49;100665.34;4940450;29;20054;-72
2023/02/24 08:30:39;;;;;;;68.10;32.95;;;;;;;7.21;84.56;100662.38;4952380;28;20700;-71
2023/02/24 08:33:10;;;;;;;74.32;33.67;;;;;;;7.31;84.69;100654.00;4957114;28;20052;-71
2023/02/24 08:35:43;;;;;;;70.07;34.35;;;;;;;7.32;84.36;100659.19;4939565;29;20071;-72
2023/02/24 08:38:16;;;;;;;65.65;32.70;;;;;;;7.22;84.55;100647.56;4957457;28;20054;-71
2023/02/24 08:40:50;;;;;;;70.07;34.10;;;;;;;7.51;84.00;100646.38;4969901;28;20058;-72
2023/02/24 08:46:11;;;;;;;70.18;33.00;;;;;;;7.38;83.92;100641.59;4956280;29;20414;-72
2023/02/24 08:48:42;;;;;;;67.82;33.15;;;;;;;7.60;82.89;100650.06;4956837;29;20521;-72
2023/02/24 08:51:14;;;;;;;63.85;34.55;;;;;;;7.43;82.93;100640.69;4955281;28;20051;-74
2023/02/24 08:53:45;;;;;;;65.00;32.53;;;;;;;7.35;83.75;100644.09;4956385;28;20043;-73
2023/02/24 08:56:22;;;;;;;69.80;33.42;;;;;;;7.13;84.24;100632.91;4956706;28;20454;-75
2023/02/24 08:58:56;;;;;;;67.13;33.97;;;;;;;7.20;85.13;100634.16;4958394;28;20051;-76
2023/02/24 09:01:26;;;;;;;74.03;32.78;;;;;;;7.37;84.55;100631.75;4960655;29;20054;-75
2023/02/24 09:03:56;;;;;;;81.18;33.92;;;;;;;7.33;84.19;100621.66;4962572;28;20082;-72
2023/02/24 09:07:05;;;;;;;70.32;33.22;;;;;;;7.65;83.03;100630.00;4943048;29;20054;-73
2023/02/24 09:09:41;;;;;;;62.55;32.60;;;;;;;7.67;82.48;100630.53;4974072;28;20071;-73
2023/02/24 09:12:20;;;;;;;64.53;31.13;;;;;;;7.72;82.32;100624.97;4931136;29;20070;-72
2023/02/24 09:14:55;;;;;;;66.13;32.42;;;;;;;7.78;81.58;100634.72;4973833;28;20051;-73
2023/02/24 09:23:19;;;;;;;71.20;31.48;;;;;;;7.88;81.33;100631.81;4967959;28;20055;-72
2023/02/24 09:25:53;;;;;;;58.47;30.73;;;;;;;7.53;80.76;100632.38;4956601;28;20067;-72
2023/02/24 09:28:25;;;;;;;61.72;30.55;;;;;;;7.65;81.33;100633.53;4959254;29;20554;-72
2023/02/24 09:30:55;;;;;;;57.58;30.00;;;;;;;7.94;79.65;100644.34;4958178;28;20059;-73
2023/02/24 09:33:27;;;;;;;58.38;30.85;;;;;;;7.81;79.56;100632.19;4956709;28;20078;-71
2023/02/24 09:36:09;;;;;;;55.58;30.85;;;;;;;7.99;78.93;100645.09;4958062;29;20062;-72
2023/02/24 09:41:52;;;;;;;59.08;30.23;;;;;;;7.52;81.07;100650.72;4956099;28;20058;-73
2023/02/24 09:44:39;;;;;;;54.05;28.50;;;;;;;7.67;80.19;100657.94;4973705;28;20054;-74
2023/02/24 09:47:29;;;;;;;60.55;29.55;;;;;;;7.72;79.77;100646.91;4940949;29;20058;-73
2023/02/24 09:50:03;;;;;;;59.35;30.20;;;;;;;7.76;79.91;100640.50;4959418;28;20055;-75
2023/02/24 09:52:40;;;;;;;58.83;29.42;;;;;;;7.43;80.49;100641.53;4956787;28;20062;-74
2023/02/24 09:55:25;;;;;;;65.13;29.73;;;;;;;7.43;80.57;100648.91;4958036;28;20122;-74
2023/02/24 09:58:30;;;;;;;53.42;28.00;;;;;;;7.54;80.77;100639.47;4960076;28;20043;-73
2023/02/24 10:01:32;;;;;;;58.28;28.17;;;;;;;7.67;79.38;100630.53;4954936;28;20051;-71
2023/02/24 10:04:17;;;;;;;;;;;;;;;7.50;79.45;100631.00;4970109;28;20058;-73
2023/02/24 10:06:48;;;;;;;64.38;26.88;;;;;;;7.43;80.84;100629.75;4952941;28;19923;-74
2023/02/24 10:09:25;;;;;;;55.50;27.58;;;;;;;7.84;79.29;100630.81;4952269;28;20054;-73
2023/02/24 10:12:02;;;;;;;59.78;27.92;;;;;;;7.99;78.16;100633.31;4954687;28;20051;-71
2023/02/24 10:15:17;;;;;;;57.88;27.73;;;;;;;7.69;79.23;100622.78;4955017;28;20055;-72
2023/02/24 10:17:46;;;;;;;54.22;25.25;;;;;;;7.83;78.57;100607.22;4958668;28;20207;-73
2023/02/24 10:20:38;;;;;;;53.67;27.05;;;;;;;7.77;78.59;100608.44;4955777;28;20051;-70
2023/02/24 10:23:28;;;;;;;49.55;25.17;;;;;;;7.83;77.79;100609.97;4955111;28;20051;-73
2023/02/24 10:26:02;;;;;;;50.72;24.90;;;;;;;8.05;77.18;100599.22;4947655;29;20059;-72
2023/02/24 10:28:56;;;;;;;46.72;24.70;;;;;;;8.33;75.21;100587.22;4971944;28;20044;-73
2023/02/24 10:31:28;;;;;;;;;;;;;;;8.43;74.24;100592.53;4935951;29;20050;-71
2023/02/24 10:34:00;;;;;;;45.95;22.70;;;;;;;8.60;73.54;100576.28;4970320;28;19922;-71
2023/02/24 10:36:34;;;;;;;44.67;22.77;;;;;;;8.75;72.75;100575.97;4953216;28;20054;-72
2023/02/24 10:39:24;;;;;;;43.97;20.90;;;;;;;8.66;71.96;100585.25;4952030;28;20048;-72
2023/02/24 10:41:57;;;;;;;43.28;21.05;;;;;;;8.80;72.15;100580.56;4954355;29;20055;-71
2023/02/24 10:44:34;;;;;;;42.53;20.95;;;;;;;8.78;71.81;100582.81;4957248;29;20055;-70
2023/02/24 10:47:12;;;;;;;43.15;21.27;;;;;;;8.87;71.59;100575.50;4969444;28;20055;-72
2023/02/24 10:49:56;;;;;;;43.10;22.15;;;;;;;9.00;70.64;100575.47;4953593;28;20047;-70
2023/02/24 10:52:36;;;;;;;42.13;20.42;;;;;;;8.68;71.50;100561.84;4937838;29;20047;-71
2023/02/24 10:55:52;;;;;;;41.65;21.13;;;;;;;8.92;70.99;100565.22;4952000;28;20062;-71
2023/02/24 10:58:27;;;;;;;37.70;18.92;;;;;;;9.03;70.20;100566.63;4963092;28;20050;-70
2023/02/24 11:03:45;;;;;;;41.38;20.05;;;;;;;9.10;70.12;100563.44;4953318;28;20051;-73
2023/02/24 11:06:51;;;;;;;39.65;19.27;;;;;;;8.79;70.51;100562.44;4958287;28;20062;-74
2023/02/24 11:17:57;;;;;;;39.97;18.80;;;;;;;8.78;70.17;100538.88;4957480;29;20054;-74
2023/02/24 11:20:32;;;;;;;38.50;18.92;;;;;;;8.48;71.16;100537.53;4957077;28;20051;-74
2023/02/24 11:23:37;;;;;;;39.83;18.93;;;;;;;9.01;70.29;100537.84;4956874;28;20071;-75
2023/02/24 11:26:16;;;;;;;43.13;19.60;;;;;;;8.97;69.47;100532.16;4954652;28;20047;-75
2023/02/24 11:28:55;;;;;;;36.70;17.48;;;;;;;9.06;68.58;100515.75;4968645;28;20055;-71
2023/02/24 11:31:54;;;;;;;37.10;17.27;;;;;;;10.73;81.16;100513.16;4956078;28;20054;-56
2023/02/24 11:34:23;;;;;;;37.45;16.70;;;;;;;11.22;68.07;100510.84;4955280;29;20051;-70
2023/02/24 11:37:08;;;;;;;43.35;18.85;;;;;;;10.34;64.01;100496.66;4955311;29;20035;-68
2023/02/24 11:39:54;;;;;;;38.42;18.30;;;;;;;10.19;64.12;100498.69;4953935;28;20388;-70
2023/02/24 11:42:26;;;;;;;45.55;19.25;;;;;;;10.38;63.45;100498.44;4940078;29;20039;-67
2023/02/24 11:45:00;;;;;;;36.10;16.98;;;;;;;9.96;64.14;100496.25;4957599;28;20047;-69
2023/02/24 11:47:32;;;;;;;33.00;16.45;;;;;;;9.46;65.21;100490.09;4955660;29;20574;-69
2023/02/24 11:50:25;;;;;;;34.70;16.73;;;;;;;9.36;66.21;100475.78;4953015;28;20051;-70
2023/02/24 11:52:54;;;;;;;37.42;17.35;;;;;;;9.47;66.01;100471.63;4966463;28;20051;-69
2023/02/24 11:55:31;;;;;;;32.28;16.20;;;;;;;9.53;65.79;100471.22;4952950;28;20047;-68
2023/02/24 11:58:02;;;;;;;39.78;16.17;;;;;;;9.61;65.65;100462.22;4966450;28;20516;-69
2023/02/24 12:00:32;;;;;;;32.42;15.95;;;;;;;9.96;64.43;100447.53;4954126;28;20051;-67
2023/02/24 12:03:12;;;;;;;35.70;16.17;;;;;;;9.97;64.08;100440.91;4953731;28;20047;-68
2023/02/24 12:05:43;;;;;;;34.45;15.70;;;;;;;10.11;63.35;100440.84;4953831;29;20054;-68
2023/02/24 12:08:21;;;;;;;38.63;15.00;;;;;;;9.82;64.52;100437.75;4954790;28;20074;-70
2023/02/24 12:10:51;;;;;;;35.25;15.90;;;;;;;10.16;63.67;100437.97;4955855;28;20051;-69
2023/02/24 12:13:20;;;;;;;;;;;;;;;10.24;63.59;100434.41;4971445;28;20047;-68
2023/02/24 12:16:11;;;;;;;29.75;15.05;;;;;;;10.04;63.63;100429.47;4967473;28;19926;-68
2023/02/24 12:18:51;;;;;;;34.50;14.57;;;;;;;10.13;63.34;100428.38;4953869;28;20074;-69
2023/02/24 12:21:22;;;;;;;35.05;16.40;;;;;;;10.03;63.18;100439.66;4967804;28;20051;-71
2023/02/24 12:23:54;;;;;;;33.72;15.65;;;;;;;9.87;63.89;100426.59;4951823;28;20047;-71